Time;durP1;ratioP1;P1;durP2;ratioP2;P2;SDS_P1;SDS_P2;PMS_P1;PMS_P2;Temp;Humidity;BMP_temperature;BMP_pressure;BME280_temperature;BME280_humidity;BME280_pressure;Samples;Min_cycle;Max_cycle;Signal;HPM_P1;HPM_P2
2023/09/12 00:00:05;;;;;;;22.10;18.10;;;;;;;-128.00;-1.00;-1.00;105771;1249;1005088;-80
2023/09/12 00:02:52;;;;;;;25.10;17.80;;;;;;;-128.00;-1.00;-1.00;105776;1250;1058879;-80
2023/09/12 00:05:18;;;;;;;19.60;16.50;;;;;;;-128.00;-1.00;-1.00;105684;1250;1004554;-80
2023/09/12 00:07:45;;;;;;;22.10;16.80;;;;;;;-128.00;-1.00;-1.00;105714;1250;1004303;-80
2023/09/12 00:10:11;;;;;;;22.70;17.40;;;;;;;-128.00;-1.00;-1.00;105695;1251;1004544;-80
2023/09/12 00:12:38;;;;;;;28.90;19.70;;;;;;;-128.00;-1.00;-1.00;105695;1251;1004242;-80
2023/09/12 00:15:04;;;;;;;23.40;17.50;;;;;;;-128.00;-1.00;-1.00;105672;1250;1004763;-80
2023/09/12 00:17:31;;;;;;;23.60;17.90;;;;;;;-128.00;-1.00;-1.00;105645;1251;1004681;-80
2023/09/12 00:19:57;;;;;;;26.80;17.80;;;;;;;-128.00;-1.00;-1.00;105698;1250;1003972;-80
2023/09/12 00:22:24;;;;;;;25.00;18.10;;;;;;;-128.00;-1.00;-1.00;105675;1250;1003956;-80
2023/09/12 00:24:50;;;;;;;24.60;18.90;;;;;;;-128.00;-1.00;-1.00;105671;1250;1003676;-80
2023/09/12 00:27:16;;;;;;;23.60;18.60;;;;;;;-128.00;-1.00;-1.00;105668;1251;1004897;-80
2023/09/12 00:29:43;;;;;;;25.20;17.30;;;;;;;-128.00;-1.00;-1.00;105650;1250;1004759;-80
2023/09/12 00:32:09;;;;;;;22.90;17.60;;;;;;;-128.00;-1.00;-1.00;105670;1251;1004233;-80
2023/09/12 00:34:36;;;;;;;24.10;17.50;;;;;;;-128.00;-1.00;-1.00;105659;1250;1004740;-80
2023/09/12 00:37:03;;;;;;;24.30;18.40;;;;;;;-128.00;-1.00;-1.00;105712;1250;1004260;-80
2023/09/12 00:39:30;;;;;;;23.50;17.60;;;;;;;-128.00;-1.00;-1.00;105648;1250;1004558;-80
2023/09/12 00:41:56;;;;;;;22.80;16.70;;;;;;;-128.00;-1.00;-1.00;105533;1251;1004617;-80
2023/09/12 00:44:23;;;;;;;22.50;17.50;;;;;;;-128.00;-1.00;-1.00;105692;1250;1004753;-80
2023/09/12 00:46:50;;;;;;;20.70;16.80;;;;;;;-128.00;-1.00;-1.00;105668;1250;1004096;-80
2023/09/12 00:49:17;;;;;;;23.30;17.30;;;;;;;-128.00;-1.00;-1.00;105716;1250;1003577;-80
2023/09/12 00:51:44;;;;;;;23.10;18.80;;;;;;;-128.00;-1.00;-1.00;105635;1250;1004698;-80
2023/09/12 00:54:10;;;;;;;20.50;16.40;;;;;;;-128.00;-1.00;-1.00;105765;1250;1004919;-80
2023/09/12 00:56:37;;;;;;;20.70;16.90;;;;;;;-128.00;-1.00;-1.00;105752;1249;1003622;-80
2023/09/12 00:59:04;;;;;;;19.90;16.50;;;;;;;-128.00;-1.00;-1.00;105736;1251;1004869;-81
2023/09/12 01:01:31;;;;;;;22.40;17.60;;;;;;;-128.00;-1.00;-1.00;105672;1250;1003511;-80
2023/09/12 01:03:57;;;;;;;32.20;18.20;;;;;;;-128.00;-1.00;-1.00;105723;1251;1005049;-80
2023/09/12 01:06:26;;;;;;;23.60;16.90;;;;;;;-128.00;-1.00;-1.00;105493;1254;1004200;-80
2023/09/12 01:08:52;;;;;;;22.20;18.10;;;;;;;-128.00;-1.00;-1.00;105656;1251;1046567;-80
2023/09/12 01:11:19;;;;;;;25.90;16.50;;;;;;;-128.00;-1.00;-1.00;105536;1251;1004656;-80
2023/09/12 01:13:45;;;;;;;25.40;17.90;;;;;;;-128.00;-1.00;-1.00;105693;1250;1004259;-80
2023/09/12 01:16:12;;;;;;;27.50;18.20;;;;;;;-128.00;-1.00;-1.00;105644;1250;1004629;-80
2023/09/12 01:18:38;;;;;;;28.60;18.60;;;;;;;-128.00;-1.00;-1.00;105675;1251;1004056;-80
2023/09/12 01:21:14;;;;;;;23.40;17.00;;;;;;;-128.00;-1.00;-1.00;105650;1250;1003826;-80
2023/09/12 01:24:03;;;;;;;27.30;17.00;;;;;;;-128.00;-1.00;-1.00;105675;1250;1061344;-80
2023/09/12 01:26:35;;;;;;;20.40;16.70;;;;;;;-128.00;-1.00;-1.00;105629;1251;1057406;-80
2023/09/12 01:29:02;;;;;;;26.60;17.00;;;;;;;-128.00;-1.00;-1.00;105659;1250;1058225;-80
2023/09/12 01:31:28;;;;;;;22.20;16.20;;;;;;;-128.00;-1.00;-1.00;105420;1251;1004800;-80
2023/09/12 01:33:56;;;;;;;20.70;16.30;;;;;;;-128.00;-1.00;-1.00;105663;1251;1004503;-80
2023/09/12 01:36:23;;;;;;;23.00;17.50;;;;;;;-128.00;-1.00;-1.00;105670;1251;1004773;-80
2023/09/12 01:38:49;;;;;;;24.10;18.60;;;;;;;-128.00;-1.00;-1.00;105623;1251;1003433;-80
2023/09/12 01:41:16;;;;;;;23.20;16.40;;;;;;;-128.00;-1.00;-1.00;105629;1251;1004439;-80
2023/09/12 01:43:42;;;;;;;24.10;17.70;;;;;;;-128.00;-1.00;-1.00;105551;1251;1004783;-80
2023/09/12 01:46:09;;;;;;;27.20;18.30;;;;;;;-128.00;-1.00;-1.00;105491;1252;1005102;-80
2023/09/12 01:48:35;;;;;;;26.10;18.80;;;;;;;-128.00;-1.00;-1.00;105671;1250;1004085;-80
2023/09/12 01:51:02;;;;;;;30.50;17.50;;;;;;;-128.00;-1.00;-1.00;105452;1254;1003582;-81
2023/09/12 01:53:29;;;;;;;21.50;17.20;;;;;;;-128.00;-1.00;-1.00;105445;1251;1004601;-80
2023/09/12 01:55:56;;;;;;;25.10;18.30;;;;;;;-128.00;-1.00;-1.00;105508;1251;1003966;-80
2023/09/12 01:58:25;;;;;;;25.00;17.10;;;;;;;-128.00;-1.00;-1.00;105504;1252;1003670;-80
2023/09/12 02:00:51;;;;;;;23.20;17.60;;;;;;;-128.00;-1.00;-1.00;105404;1251;1003793;-80
2023/09/12 02:03:18;;;;;;;21.60;17.10;;;;;;;-128.00;-1.00;-1.00;105685;1251;1004150;-80
2023/09/12 02:05:45;;;;;;;19.70;15.90;;;;;;;-128.00;-1.00;-1.00;105640;1251;1004365;-80
2023/09/12 02:08:11;;;;;;;22.70;17.30;;;;;;;-128.00;-1.00;-1.00;105612;1251;1004214;-80
2023/09/12 02:10:38;;;;;;;22.30;16.90;;;;;;;-128.00;-1.00;-1.00;105573;1251;1004262;-80
2023/09/12 02:13:04;;;;;;;30.30;18.80;;;;;;;-128.00;-1.00;-1.00;105663;1250;1003886;-80
2023/09/12 02:15:31;;;;;;;24.30;18.20;;;;;;;-128.00;-1.00;-1.00;105688;1250;1003675;-80
2023/09/12 02:17:57;;;;;;;25.30;18.70;;;;;;;-128.00;-1.00;-1.00;105643;1250;1003715;-80
2023/09/12 02:20:24;;;;;;;28.30;18.70;;;;;;;-128.00;-1.00;-1.00;105641;1250;1004203;-80
2023/09/12 02:22:51;;;;;;;23.70;17.80;;;;;;;-128.00;-1.00;-1.00;105652;1251;1003310;-80
2023/09/12 02:25:17;;;;;;;32.20;18.10;;;;;;;-128.00;-1.00;-1.00;105679;1250;1004651;-80
2023/09/12 02:27:44;;;;;;;26.50;17.30;;;;;;;-128.00;-1.00;-1.00;105642;1250;1003883;-81
2023/09/12 02:30:11;;;;;;;22.40;16.90;;;;;;;-128.00;-1.00;-1.00;105643;1250;1003369;-80
2023/09/12 02:32:37;;;;;;;18.70;16.20;;;;;;;-128.00;-1.00;-1.00;105613;1250;1004029;-80
2023/09/12 02:35:04;;;;;;;20.50;15.60;;;;;;;-128.00;-1.00;-1.00;105660;1251;1004121;-80
2023/09/12 02:37:31;;;;;;;26.40;17.80;;;;;;;-128.00;-1.00;-1.00;105618;1251;1003500;-81
2023/09/12 02:39:57;;;;;;;24.50;16.80;;;;;;;-128.00;-1.00;-1.00;105649;1251;1004433;-80
2023/09/12 02:42:25;;;;;;;22.00;17.70;;;;;;;-128.00;-1.00;-1.00;105621;1251;1005101;-80
2023/09/12 02:44:52;;;;;;;25.60;17.40;;;;;;;-128.00;-1.00;-1.00;105622;1250;1004738;-80
2023/09/12 02:47:19;;;;;;;22.20;17.50;;;;;;;-128.00;-1.00;-1.00;105635;1250;1003691;-80
2023/09/12 02:49:45;;;;;;;20.70;17.30;;;;;;;-128.00;-1.00;-1.00;105508;1251;1004625;-80
2023/09/12 02:52:12;;;;;;;23.00;16.50;;;;;;;-128.00;-1.00;-1.00;105613;1251;1004233;-80
2023/09/12 02:54:38;;;;;;;19.70;16.20;;;;;;;-128.00;-1.00;-1.00;105601;1251;1004422;-80
2023/09/12 02:57:05;;;;;;;25.80;18.20;;;;;;;-128.00;-1.00;-1.00;105611;1251;1004109;-80
2023/09/12 02:59:31;;;;;;;25.10;17.10;;;;;;;-128.00;-1.00;-1.00;105703;1250;1004108;-80
2023/09/12 03:01:58;;;;;;;20.80;16.70;;;;;;;-128.00;-1.00;-1.00;105807;1251;1004800;-80
2023/09/12 03:04:25;;;;;;;23.40;18.70;;;;;;;-128.00;-1.00;-1.00;105693;1251;1004498;-80
2023/09/12 03:06:51;;;;;;;25.60;16.60;;;;;;;-128.00;-1.00;-1.00;105483;1251;1005511;-80
2023/09/12 03:09:19;;;;;;;25.90;19.30;;;;;;;-128.00;-1.00;-1.00;105653;1250;1004611;-80
2023/09/12 03:11:46;;;;;;;22.40;17.10;;;;;;;-128.00;-1.00;-1.00;105564;1251;1004550;-80
2023/09/12 03:14:12;;;;;;;27.60;18.10;;;;;;;-128.00;-1.00;-1.00;105542;1251;1004648;-80
2023/09/12 03:16:39;;;;;;;26.50;18.00;;;;;;;-128.00;-1.00;-1.00;105642;1250;1004725;-80
2023/09/12 03:19:06;;;;;;;24.30;16.90;;;;;;;-128.00;-1.00;-1.00;105642;1251;1003925;-80
2023/09/12 03:21:32;;;;;;;23.80;18.00;;;;;;;-128.00;-1.00;-1.00;105618;1250;1004713;-80
2023/09/12 03:23:59;;;;;;;26.00;17.90;;;;;;;-128.00;-1.00;-1.00;105662;1250;1003914;-80
2023/09/12 03:26:26;;;;;;;29.00;19.20;;;;;;;-128.00;-1.00;-1.00;105670;1250;1004651;-80
2023/09/12 03:28:53;;;;;;;31.40;19.50;;;;;;;-128.00;-1.00;-1.00;105680;1250;1005073;-80
2023/09/12 03:31:19;;;;;;;34.80;20.40;;;;;;;-128.00;-1.00;-1.00;105553;1251;1003857;-80
2023/09/12 03:33:49;;;;;;;31.20;20.90;;;;;;;-128.00;-1.00;-1.00;105437;1251;1004765;-80
2023/09/12 03:36:16;;;;;;;28.50;18.60;;;;;;;-128.00;-1.00;-1.00;105649;1250;1047441;-80
2023/09/12 03:38:43;;;;;;;27.00;18.50;;;;;;;-128.00;-1.00;-1.00;105654;1250;1004259;-80
2023/09/12 03:41:10;;;;;;;26.70;18.90;;;;;;;-128.00;-1.00;-1.00;105529;1250;1004423;-80
2023/09/12 03:43:36;;;;;;;26.50;18.70;;;;;;;-128.00;-1.00;-1.00;105608;1250;1004837;-80
2023/09/12 03:46:03;;;;;;;26.50;19.60;;;;;;;-128.00;-1.00;-1.00;105654;1250;1004877;-80
2023/09/12 03:48:33;;;;;;;29.10;19.20;;;;;;;-128.00;-1.00;-1.00;105591;1250;1003727;-80
2023/09/12 03:51:01;;;;;;;22.80;17.30;;;;;;;-128.00;-1.00;-1.00;105561;1250;1060868;-80
2023/09/12 03:53:27;;;;;;;21.30;18.10;;;;;;;-128.00;-1.00;-1.00;105641;1251;1004565;-80
2023/09/12 03:55:54;;;;;;;27.00;18.90;;;;;;;-128.00;-1.00;-1.00;105765;1250;1004690;-80
2023/09/12 03:58:21;;;;;;;20.80;17.10;;;;;;;-128.00;-1.00;-1.00;105728;1251;1004730;-80
2023/09/12 04:00:47;;;;;;;33.70;20.70;;;;;;;-128.00;-1.00;-1.00;105782;1251;1004446;-80
2023/09/12 04:03:16;;;;;;;23.50;18.20;;;;;;;-128.00;-1.00;-1.00;105750;1250;1004488;-80
2023/09/12 04:05:42;;;;;;;26.10;19.50;;;;;;;-128.00;-1.00;-1.00;105638;1251;1004362;-80
2023/09/12 04:08:09;;;;;;;27.30;18.20;;;;;;;-128.00;-1.00;-1.00;105635;1251;1005522;-80
2023/09/12 04:10:35;;;;;;;29.30;19.60;;;;;;;-128.00;-1.00;-1.00;105618;1251;1004362;-80
2023/09/12 04:13:02;;;;;;;32.10;20.80;;;;;;;-128.00;-1.00;-1.00;105537;1250;1004390;-80
2023/09/12 04:15:28;;;;;;;26.60;18.80;;;;;;;-128.00;-1.00;-1.00;105624;1251;1004531;-80
2023/09/12 04:17:54;;;;;;;24.30;16.80;;;;;;;-128.00;-1.00;-1.00;105660;1250;1004290;-80
2023/09/12 04:20:21;;;;;;;21.40;16.80;;;;;;;-128.00;-1.00;-1.00;105592;1251;1004314;-80
2023/09/12 04:22:47;;;;;;;24.20;16.90;;;;;;;-128.00;-1.00;-1.00;105625;1250;1004598;-80
2023/09/12 04:25:14;;;;;;;22.70;18.00;;;;;;;-128.00;-1.00;-1.00;105622;1251;1003315;-80
2023/09/12 04:27:41;;;;;;;23.20;18.20;;;;;;;-128.00;-1.00;-1.00;105651;1250;1003824;-80
2023/09/12 04:30:08;;;;;;;27.40;18.30;;;;;;;-128.00;-1.00;-1.00;105533;1251;1004655;-80
2023/09/12 04:32:34;;;;;;;26.30;18.70;;;;;;;-128.00;-1.00;-1.00;105606;1251;1004644;-80
2023/09/12 04:35:03;;;;;;;21.20;17.80;;;;;;;-128.00;-1.00;-1.00;105620;1250;1004918;-80
2023/09/12 04:37:29;;;;;;;26.20;16.60;;;;;;;-128.00;-1.00;-1.00;105519;1254;1048800;-80
2023/09/12 04:39:56;;;;;;;26.60;17.70;;;;;;;-128.00;-1.00;-1.00;105649;1251;1004011;-80
2023/09/12 04:42:23;;;;;;;24.20;17.30;;;;;;;-128.00;-1.00;-1.00;105647;1250;1004671;-80
2023/09/12 04:44:49;;;;;;;22.60;17.40;;;;;;;-128.00;-1.00;-1.00;105644;1250;1004564;-80
2023/09/12 04:47:16;;;;;;;22.90;17.90;;;;;;;-128.00;-1.00;-1.00;105635;1250;1004559;-80
2023/09/12 04:49:43;;;;;;;24.30;17.40;;;;;;;-128.00;-1.00;-1.00;105622;1250;1004307;-80
2023/09/12 04:52:09;;;;;;;28.20;19.30;;;;;;;-128.00;-1.00;-1.00;105657;1251;1004343;-80
2023/09/12 04:54:36;;;;;;;25.10;17.50;;;;;;;-128.00;-1.00;-1.00;105635;1251;1004568;-80
2023/09/12 04:57:03;;;;;;;22.30;17.50;;;;;;;-128.00;-1.00;-1.00;105676;1251;1004256;-82
2023/09/12 04:59:29;;;;;;;22.20;16.80;;;;;;;-128.00;-1.00;-1.00;105478;1252;1004406;-80
2023/09/12 05:01:56;;;;;;;20.30;15.10;;;;;;;-128.00;-1.00;-1.00;105535;1252;1004284;-80
2023/09/12 05:04:22;;;;;;;19.40;16.70;;;;;;;-128.00;-1.00;-1.00;105501;1252;1004352;-80
2023/09/12 05:06:48;;;;;;;27.70;18.10;;;;;;;-128.00;-1.00;-1.00;105523;1252;1003234;-80
2023/09/12 05:09:16;;;;;;;26.10;17.40;;;;;;;-128.00;-1.00;-1.00;105511;1251;1005362;-80
2023/09/12 05:11:42;;;;;;;22.60;16.50;;;;;;;-128.00;-1.00;-1.00;105621;1251;1004823;-80
2023/09/12 05:14:09;;;;;;;21.10;16.40;;;;;;;-128.00;-1.00;-1.00;105631;1251;1004718;-80
2023/09/12 05:16:35;;;;;;;23.00;16.70;;;;;;;-128.00;-1.00;-1.00;105546;1253;1004894;-80
2023/09/12 05:19:02;;;;;;;22.50;17.80;;;;;;;-128.00;-1.00;-1.00;105515;1253;1004808;-80
2023/09/12 05:21:28;;;;;;;22.50;16.30;;;;;;;-128.00;-1.00;-1.00;105541;1252;1003510;-80
2023/09/12 05:23:55;;;;;;;19.50;16.40;;;;;;;-128.00;-1.00;-1.00;105520;1252;1005349;-80
2023/09/12 05:26:21;;;;;;;19.60;15.40;;;;;;;-128.00;-1.00;-1.00;105559;1251;1003718;-80
2023/09/12 05:28:48;;;;;;;23.10;17.00;;;;;;;-128.00;-1.00;-1.00;105562;1250;1004997;-80
2023/09/12 05:31:14;;;;;;;23.90;17.40;;;;;;;-128.00;-1.00;-1.00;105517;1251;1004915;-80
2023/09/12 05:33:41;;;;;;;23.30;15.80;;;;;;;-128.00;-1.00;-1.00;105451;1253;1003229;-80
2023/09/12 05:36:07;;;;;;;18.60;15.60;;;;;;;-128.00;-1.00;-1.00;105430;1253;1004510;-80
2023/09/12 05:38:33;;;;;;;22.80;15.80;;;;;;;-128.00;-1.00;-1.00;105545;1253;1004712;-81
2023/09/12 05:41:00;;;;;;;20.10;16.20;;;;;;;-128.00;-1.00;-1.00;105532;1253;1004901;-80
2023/09/12 05:43:26;;;;;;;18.50;14.70;;;;;;;-128.00;-1.00;-1.00;105608;1251;1004815;-80
2023/09/12 05:45:53;;;;;;;19.90;16.10;;;;;;;-128.00;-1.00;-1.00;105573;1251;1004661;-81
2023/09/12 05:48:19;;;;;;;21.70;14.60;;;;;;;-128.00;-1.00;-1.00;105580;1252;1005410;-80
2023/09/12 05:50:46;;;;;;;22.20;16.40;;;;;;;-128.00;-1.00;-1.00;105461;1253;1003373;-80
2023/09/12 05:53:14;;;;;;;21.90;15.80;;;;;;;-128.00;-1.00;-1.00;105472;1252;1005142;-81
2023/09/12 05:55:41;;;;;;;26.10;16.40;;;;;;;-128.00;-1.00;-1.00;105516;1253;1004432;-80
2023/09/12 05:58:07;;;;;;;23.80;16.00;;;;;;;-128.00;-1.00;-1.00;105534;1252;1004146;-80
2023/09/12 06:00:34;;;;;;;18.10;14.70;;;;;;;-128.00;-1.00;-1.00;105489;1253;1004360;-80
2023/09/12 06:03:00;;;;;;;21.20;16.10;;;;;;;-128.00;-1.00;-1.00;105437;1255;1004859;-80
2023/09/12 06:05:27;;;;;;;22.00;15.80;;;;;;;-128.00;-1.00;-1.00;105478;1251;1004174;-80
2023/09/12 06:07:53;;;;;;;21.20;17.20;;;;;;;-128.00;-1.00;-1.00;105484;1253;1004646;-80
2023/09/12 06:10:21;;;;;;;19.80;16.60;;;;;;;-128.00;-1.00;-1.00;105474;1252;1003969;-80
2023/09/12 06:12:48;;;;;;;19.90;14.40;;;;;;;-128.00;-1.00;-1.00;105458;1253;1004242;-80
2023/09/12 06:15:14;;;;;;;24.40;16.40;;;;;;;-128.00;-1.00;-1.00;105509;1250;1004627;-80
2023/09/12 06:17:40;;;;;;;18.80;15.60;;;;;;;-128.00;-1.00;-1.00;105402;1251;1004038;-80
2023/09/12 06:20:07;;;;;;;20.00;14.10;;;;;;;-128.00;-1.00;-1.00;105512;1253;1003799;-81
2023/09/12 06:22:34;;;;;;;22.00;14.60;;;;;;;-128.00;-1.00;-1.00;105426;1253;1004863;-81
2023/09/12 06:25:01;;;;;;;19.70;15.80;;;;;;;-128.00;-1.00;-1.00;105364;1253;1005417;-80
2023/09/12 06:27:27;;;;;;;18.70;13.80;;;;;;;-128.00;-1.00;-1.00;105407;1253;1005022;-80
2023/09/12 06:29:54;;;;;;;21.90;16.10;;;;;;;-128.00;-1.00;-1.00;105448;1253;1004599;-81
2023/09/12 06:32:21;;;;;;;24.00;13.50;;;;;;;-128.00;-1.00;-1.00;105448;1252;1005143;-81
2023/09/12 06:34:47;;;;;;;17.30;14.60;;;;;;;-128.00;-1.00;-1.00;105487;1251;1004801;-80
2023/09/12 06:37:14;;;;;;;19.20;14.40;;;;;;;-128.00;-1.00;-1.00;105487;1252;1003855;-81
2023/09/12 06:39:40;;;;;;;24.50;15.20;;;;;;;-128.00;-1.00;-1.00;105431;1253;1004894;-80
2023/09/12 06:42:08;;;;;;;18.20;15.30;;;;;;;-128.00;-1.00;-1.00;105359;1253;1004871;-81
2023/09/12 06:44:34;;;;;;;23.70;15.20;;;;;;;-128.00;-1.00;-1.00;105504;1252;1004140;-80
2023/09/12 06:47:03;;;;;;;16.10;14.30;;;;;;;-128.00;-1.00;-1.00;105552;1250;1004381;-81
2023/09/12 06:49:32;;;;;;;24.70;15.00;;;;;;;-128.00;-1.00;-1.00;105431;1253;1003917;-81
2023/09/12 06:51:58;;;;;;;22.40;15.60;;;;;;;-128.00;-1.00;-1.00;105577;1251;1047156;-80
2023/09/12 06:54:25;;;;;;;19.20;14.40;;;;;;;-128.00;-1.00;-1.00;105467;1253;1004329;-81
2023/09/12 06:56:51;;;;;;;18.50;14.40;;;;;;;-128.00;-1.00;-1.00;105480;1253;1004499;-81
2023/09/12 06:59:18;;;;;;;21.30;13.70;;;;;;;-128.00;-1.00;-1.00;105503;1253;1003768;-81
2023/09/12 07:01:44;;;;;;;15.70;12.60;;;;;;;-128.00;-1.00;-1.00;105570;1251;1003412;-81
2023/09/12 07:04:11;;;;;;;19.10;13.80;;;;;;;-128.00;-1.00;-1.00;105574;1251;1004492;-81
2023/09/12 07:06:37;;;;;;;16.60;12.40;;;;;;;-128.00;-1.00;-1.00;105593;1251;1004846;-81
2023/09/12 07:09:04;;;;;;;13.30;11.90;;;;;;;-128.00;-1.00;-1.00;105617;1251;1004260;-80
2023/09/12 07:11:31;;;;;;;15.00;11.80;;;;;;;-128.00;-1.00;-1.00;105506;1253;1003921;-81
2023/09/12 07:13:58;;;;;;;16.30;12.90;;;;;;;-128.00;-1.00;-1.00;105607;1251;1003860;-81
2023/09/12 07:16:25;;;;;;;16.00;12.80;;;;;;;-128.00;-1.00;-1.00;105373;1253;1004203;-80
2023/09/12 07:18:52;;;;;;;19.10;12.30;;;;;;;-128.00;-1.00;-1.00;105566;1251;1005121;-81
2023/09/12 07:21:19;;;;;;;16.60;11.70;;;;;;;-128.00;-1.00;-1.00;105527;1253;1004010;-82
2023/09/12 07:23:48;;;;;;;16.20;11.90;;;;;;;-128.00;-1.00;-1.00;105526;1251;1003675;-81
2023/09/12 07:26:14;;;;;;;;;;;;;;;-128.00;-1.00;-1.00;105540;1251;1046162;-80
2023/09/12 07:28:41;;;;;;;13.70;10.90;;;;;;;-128.00;-1.00;-1.00;105599;1250;1004161;-81
2023/09/12 07:31:07;;;;;;;16.20;11.80;;;;;;;-128.00;-1.00;-1.00;105586;1251;1004685;-81
2023/09/12 07:33:34;;;;;;;15.90;11.10;;;;;;;-128.00;-1.00;-1.00;105602;1251;1004561;-81
2023/09/12 07:36:02;;;;;;;14.40;12.20;;;;;;;-128.00;-1.00;-1.00;105492;1251;1004385;-81
2023/09/12 07:38:30;;;;;;;12.70;10.80;;;;;;;-128.00;-1.00;-1.00;105629;1251;1046097;-81
2023/09/12 07:40:58;;;;;;;14.60;11.20;;;;;;;-128.00;-1.00;-1.00;105589;1251;1004639;-81
2023/09/12 07:43:25;;;;;;;17.10;11.30;;;;;;;-128.00;-1.00;-1.00;105529;1253;1004617;-81
2023/09/12 07:45:56;;;;;;;14.40;10.30;;;;;;;-128.00;-1.00;-1.00;105531;1251;1003787;-81
2023/09/12 07:48:22;;;;;;;14.80;10.70;;;;;;;-128.00;-1.00;-1.00;105523;1251;1059137;-81
2023/09/12 07:50:49;;;;;;;12.30;10.60;;;;;;;-128.00;-1.00;-1.00;105580;1251;1004790;-82
2023/09/12 07:53:15;;;;;;;17.40;10.80;;;;;;;-128.00;-1.00;-1.00;105613;1250;1003774;-81
2023/09/12 07:55:46;;;;;;;10.30;9.10;;;;;;;-128.00;-1.00;-1.00;105463;1251;1003841;-81
2023/09/12 07:58:18;;;;;;;14.40;9.60;;;;;;;-128.00;-1.00;-1.00;105594;1251;1057931;-81
2023/09/12 08:00:45;;;;;;;13.90;9.80;;;;;;;-128.00;-1.00;-1.00;105529;1251;1059399;-82
2023/09/12 08:03:12;;;;;;;10.70;9.50;;;;;;;-128.00;-1.00;-1.00;105523;1251;1004503;-81
2023/09/12 08:05:38;;;;;;;15.20;9.80;;;;;;;-128.00;-1.00;-1.00;105591;1251;1004103;-82
2023/09/12 08:08:05;;;;;;;14.60;9.00;;;;;;;-128.00;-1.00;-1.00;105591;1251;1003941;-82
2023/09/12 08:10:31;;;;;;;14.10;9.30;;;;;;;-128.00;-1.00;-1.00;105487;1251;1005186;-81
2023/09/12 08:12:58;;;;;;;12.70;8.40;;;;;;;-128.00;-1.00;-1.00;105576;1251;1004158;-82
2023/09/12 08:15:24;;;;;;;10.80;9.00;;;;;;;-128.00;-1.00;-1.00;105583;1251;1004155;-82
2023/09/12 08:17:52;;;;;;;12.80;8.80;;;;;;;-128.00;-1.00;-1.00;105623;1251;1003646;-82
2023/09/12 08:20:20;;;;;;;11.60;7.90;;;;;;;-128.00;-1.00;-1.00;105590;1251;1004381;-82
2023/09/12 08:22:47;;;;;;;11.30;8.20;;;;;;;-128.00;-1.00;-1.00;105569;1251;1004838;-82
2023/09/12 08:25:14;;;;;;;8.40;7.10;;;;;;;-128.00;-1.00;-1.00;105567;1251;1004100;-83
2023/09/12 08:27:42;;;;;;;12.20;7.70;;;;;;;-128.00;-1.00;-1.00;105640;1250;1004608;-82
2023/09/12 08:30:10;;;;;;;12.60;7.10;;;;;;;-128.00;-1.00;-1.00;105591;1251;1004888;-82
2023/09/12 08:32:39;;;;;;;;;;;;;;;-128.00;-1.00;-1.00;105575;1251;1004119;-82
2023/09/12 08:35:08;;;;;;;12.80;8.10;;;;;;;-128.00;-1.00;-1.00;105697;1250;1058126;-82
2023/09/12 08:37:35;;;;;;;9.50;8.50;;;;;;;-128.00;-1.00;-1.00;105580;1251;1059786;-83
2023/09/12 08:40:01;;;;;;;13.30;7.80;;;;;;;-128.00;-1.00;-1.00;105597;1251;1004561;-82
2023/09/12 08:42:28;;;;;;;10.60;7.70;;;;;;;-128.00;-1.00;-1.00;105645;1251;1004246;-82
2023/09/12 08:44:54;;;;;;;7.90;6.70;;;;;;;-128.00;-1.00;-1.00;105651;1250;1004041;-82
2023/09/12 08:47:22;;;;;;;15.00;7.00;;;;;;;-128.00;-1.00;-1.00;105478;1251;1004189;-82
2023/09/12 08:49:49;;;;;;;7.10;6.40;;;;;;;-128.00;-1.00;-1.00;105577;1250;1004665;-82
2023/09/12 08:52:15;;;;;;;9.50;7.20;;;;;;;-128.00;-1.00;-1.00;105594;1254;1004228;-83
2023/09/12 08:54:42;;;;;;;8.50;6.30;;;;;;;-128.00;-1.00;-1.00;105619;1251;1004102;-82
2023/09/12 08:57:08;;;;;;;7.20;6.40;;;;;;;-128.00;-1.00;-1.00;105633;1250;1004593;-82
2023/09/12 08:59:35;;;;;;;12.50;6.50;;;;;;;-128.00;-1.00;-1.00;105434;1251;1003492;-82
2023/09/12 09:02:01;;;;;;;9.10;7.10;;;;;;;-128.00;-1.00;-1.00;105501;1250;1003563;-82
2023/09/12 09:04:29;;;;;;;8.20;7.20;;;;;;;-128.00;-1.00;-1.00;105610;1251;1004650;-82
2023/09/12 09:06:57;;;;;;;9.40;6.90;;;;;;;-128.00;-1.00;-1.00;105586;1251;1004975;-82
2023/09/12 09:09:24;;;;;;;11.00;7.50;;;;;;;-128.00;-1.00;-1.00;105452;1251;1004423;-82
2023/09/12 09:11:50;;;;;;;12.20;7.20;;;;;;;-128.00;-1.00;-1.00;105569;1251;1005071;-82
2023/09/12 09:14:17;;;;;;;8.30;6.60;;;;;;;-128.00;-1.00;-1.00;105602;1251;1005732;-82
2023/09/12 09:16:43;;;;;;;8.10;6.70;;;;;;;-128.00;-1.00;-1.00;105567;1251;1004616;-82
2023/09/12 09:19:10;;;;;;;13.30;7.30;;;;;;;-128.00;-1.00;-1.00;105433;1253;1004301;-81
2023/09/12 09:21:38;;;;;;;8.20;6.50;;;;;;;-128.00;-1.00;-1.00;105547;1250;1004260;-82
2023/09/12 09:24:10;;;;;;;12.60;6.80;;;;;;;-128.00;-1.00;-1.00;105565;1251;1004169;-82
2023/09/12 09:27:03;;;;;;;10.20;6.60;;;;;;;-128.00;-1.00;-1.00;105570;1251;1059555;-81
2023/09/12 09:29:33;;;;;;;7.50;6.70;;;;;;;-128.00;-1.00;-1.00;105532;1251;1043756;-82
2023/09/12 09:32:00;;;;;;;10.60;7.10;;;;;;;-128.00;-1.00;-1.00;105272;1253;1047300;-81
2023/09/12 09:34:31;;;;;;;10.20;8.30;;;;;;;-128.00;-1.00;-1.00;105570;1252;1004377;-81
2023/09/12 09:36:58;;;;;;;9.70;7.40;;;;;;;-128.00;-1.00;-1.00;105469;1250;1058793;-82
2023/09/12 09:39:26;;;;;;;10.70;6.60;;;;;;;-128.00;-1.00;-1.00;105531;1250;1004376;-81
2023/09/12 09:41:53;;;;;;;10.90;7.00;;;;;;;-128.00;-1.00;-1.00;105509;1251;1004685;-81
2023/09/12 09:44:26;;;;;;;8.30;7.20;;;;;;;-128.00;-1.00;-1.00;105607;1251;1004748;-81
2023/09/12 09:46:55;;;;;;;11.70;6.70;;;;;;;-128.00;-1.00;-1.00;105537;1251;1062626;-82
2023/09/12 09:49:22;;;;;;;11.90;7.30;;;;;;;-128.00;-1.00;-1.00;105631;1251;1058216;-82
2023/09/12 09:51:48;;;;;;;9.50;6.50;;;;;;;-128.00;-1.00;-1.00;105554;1251;1004557;-82
2023/09/12 09:54:15;;;;;;;9.00;7.10;;;;;;;-128.00;-1.00;-1.00;105588;1251;1003982;-82
2023/09/12 09:56:54;;;;;;;13.80;7.60;;;;;;;-128.00;-1.00;-1.00;105484;1252;1004828;-81
2023/09/12 09:59:22;;;;;;;13.50;6.90;;;;;;;-128.00;-1.00;-1.00;105571;1251;1061218;-82
2023/09/12 10:01:51;;;;;;;7.20;6.20;;;;;;;-128.00;-1.00;-1.00;105509;1251;1004064;-81
2023/09/12 10:04:17;;;;;;;;;;;;;;;-128.00;-1.00;-1.00;105497;1253;1059857;-81
2023/09/12 10:06:45;;;;;;;7.40;6.30;;;;;;;-128.00;-1.00;-1.00;105519;1254;1004220;-81
2023/09/12 10:09:13;;;;;;;10.60;6.60;;;;;;;-128.00;-1.00;-1.00;105609;1250;1004101;-82
2023/09/12 10:11:41;;;;;;;11.80;7.10;;;;;;;-128.00;-1.00;-1.00;105645;1251;1004564;-82
2023/09/12 10:14:07;;;;;;;10.50;5.90;;;;;;;-128.00;-1.00;-1.00;105607;1251;1003432;-81
2023/09/12 10:16:48;;;;;;;11.80;7.00;;;;;;;-128.00;-1.00;-1.00;105532;1253;1004722;-82
2023/09/12 10:19:18;;;;;;;16.10;6.60;;;;;;;-128.00;-1.00;-1.00;105554;1251;1045577;-81
2023/09/12 10:22:07;;;;;;;10.10;6.50;;;;;;;-128.00;-1.00;-1.00;105747;1251;1045696;-82
2023/09/12 10:24:34;;;;;;;10.80;6.80;;;;;;;-128.00;-1.00;-1.00;105489;1253;1060663;-81
2023/09/12 10:27:04;;;;;;;9.90;7.10;;;;;;;-128.00;-1.00;-1.00;105593;1250;1004768;-81
2023/09/12 10:29:31;;;;;;;9.20;7.00;;;;;;;-128.00;-1.00;-1.00;105406;1253;1059760;-81
2023/09/12 10:31:58;;;;;;;7.30;6.40;;;;;;;-128.00;-1.00;-1.00;105581;1251;1004542;-81
2023/09/12 10:34:25;;;;;;;8.50;7.50;;;;;;;-128.00;-1.00;-1.00;105455;1252;1003889;-81
2023/09/12 10:36:51;;;;;;;8.30;7.00;;;;;;;-128.00;-1.00;-1.00;105578;1253;1004442;-82
2023/09/12 10:39:17;;;;;;;13.30;6.60;;;;;;;-128.00;-1.00;-1.00;105437;1257;1005115;-81
2023/09/12 10:41:44;;;;;;;8.60;6.70;;;;;;;-128.00;-1.00;-1.00;105526;1252;1003870;-81
2023/09/12 10:44:15;;;;;;;7.20;6.20;;;;;;;-128.00;-1.00;-1.00;105440;1256;1004606;-81
2023/09/12 10:46:42;;;;;;;18.50;10.70;;;;;;;-128.00;-1.00;-1.00;105479;1254;1046737;-82
2023/09/12 10:49:10;;;;;;;7.40;6.30;;;;;;;-128.00;-1.00;-1.00;105513;1251;1004475;-82
2023/09/12 10:51:44;;;;;;;11.50;6.60;;;;;;;-128.00;-1.00;-1.00;105536;1251;1058394;-82
2023/09/12 10:54:24;;;;;;;11.00;7.10;;;;;;;-128.00;-1.00;-1.00;105534;1251;1058624;-81
2023/09/12 10:57:07;;;;;;;10.90;6.10;;;;;;;-128.00;-1.00;-1.00;105530;1251;1043632;-81
2023/09/12 10:59:37;;;;;;;6.90;5.90;;;;;;;-128.00;-1.00;-1.00;105596;1251;1047325;-82
2023/09/12 11:02:29;;;;;;;11.00;6.70;;;;;;;-128.00;-1.00;-1.00;105552;1251;1061817;-81
2023/09/12 11:04:57;;;;;;;13.70;10.30;;;;;;;-128.00;-1.00;-1.00;105483;1252;1058888;-82